CheckWX is a tool to help pilots better visualize weather data.  It is not intended as a substitute for an official pre-flight weather briefing.

09:26:31 UTC

KELM TAF
Elmira / Corning Regional Airport
Elmira/Corning, New York, USA
KELM 240840Z 2409/2506 21005KT P6SM SKC FM241600 22007G12KT P6SM SCT200 FM242000 VRB04KT P6SM SCT070 BKN150

Feb-24@
09:00 UTC

Feb-24 @ 09:00 UTC

Feb-24@
16:00 UTC

Feb-24 @ 16:00 UTC

KELM 240840Z 2409/2506 21005KT P6SM SKC
Wind
  • 210° at 5 KTS
Cloud Levels
  • Clear skies

Feb-24@
16:00 UTC

Feb-24 @ 16:00 UTC

Feb-24@
20:00 UTC

Feb-24 @ 20:00 UTC

FM241600 22007G12KT P6SM SCT200

From

From Standard forecast or significant change

Wind
  • 220° at 7 KTS
  • {Gusting to 12 KTS
Cloud Levels
  • Scattered at 20,000' AGL

Feb-24@
20:00 UTC

Feb-24 @ 20:00 UTC

Feb-25@
06:00 UTC

Feb-25 @ 06:00 UTC

FM242000 VRB04KT P6SM SCT070 BKN150

From

From Standard forecast or significant change

Wind
  • Variable at 4 KTS
Cloud Levels
  • Scattered at 7,000' AGL
  • Broken at 15,000' AGL